Time;durP1;ratioP1;P1;durP2;ratioP2;P2;SDS_P1;SDS_P2;PMS_P1;PMS_P2;Temp;Humidity;BMP_temperature;BMP_pressure;BME280_temperature;BME280_humidity;BME280_pressure;Samples;Min_cycle;Max_cycle;Signal;HPM_P1;HPM_P2
2021/04/04 00:00:09;;;;;;;23.02;10.82;;;2.70;87.80;;;;;;4982032;28;20039;-71
2021/04/04 00:02:35;;;;;;;21.92;10.65;;;2.70;88.10;;;;;;4991443;28;20034;-71
2021/04/04 00:05:01;;;;;;;23.17;11.00;;;2.70;88.40;;;;;;4984159;28;20034;-71
2021/04/04 00:07:26;;;;;;;23.65;11.05;;;2.60;89.50;;;;;;4972482;28;20038;-70
2021/04/04 00:09:52;;;;;;;25.73;11.48;;;2.60;89.90;;;;;;4987476;28;20027;-71
2021/04/04 00:12:17;;;;;;;24.55;11.43;;;2.70;89.90;;;;;;4977076;28;20065;-72
2021/04/04 00:14:43;;;;;;;25.08;10.80;;;2.70;89.00;;;;;;4988293;28;20504;-72
2021/04/04 00:17:09;;;;;;;27.17;12.27;;;2.60;90.00;;;;;;4988480;28;20022;-72
2021/04/04 00:19:37;;;;;;;27.52;11.82;;;2.60;90.00;;;;;;4974770;28;20038;-72
2021/04/04 00:22:02;;;;;;;26.23;10.90;;;2.50;90.10;;;;;;4988094;28;20488;-73
2021/04/04 00:24:28;;;;;;;25.10;11.15;;;2.40;90.60;;;;;;4988886;28;20034;-72
2021/04/04 00:26:54;;;;;;;28.38;11.32;;;2.40;90.70;;;;;;4991569;28;20034;-72
2021/04/04 00:29:22;;;;;;;23.85;11.25;;;2.50;90.20;;;;;;4987400;28;20113;-72
2021/04/04 00:31:48;;;;;;;23.23;11.25;;;2.50;90.80;;;;;;4992858;28;20029;-72
2021/04/04 00:34:14;;;;;;;26.50;11.10;;;2.50;90.20;;;;;;4991998;28;20034;-72
2021/04/04 00:36:42;;;;;;;21.55;10.50;;;2.40;90.20;;;;;;4986858;28;20470;-72
2021/04/04 00:39:10;;;;;;;27.38;11.80;;;2.40;90.30;;;;;;4992547;28;20042;-72
2021/04/04 00:41:36;;;;;;;28.00;11.20;;;2.40;90.90;;;;;;4988604;28;20031;-71
2021/04/04 00:44:03;;;;;;;24.50;10.40;;;2.40;90.80;;;;;;4986702;28;20034;-72
2021/04/04 00:46:29;;;;;;;28.88;11.75;;;2.40;90.60;;;;;;4989452;28;20100;-72
2021/04/04 00:48:58;;;;;;;24.92;12.05;;;2.40;91.20;;;;;;4986178;28;20034;-72
2021/04/04 00:51:24;;;;;;;23.42;11.23;;;2.30;91.60;;;;;;4991054;28;20046;-72
2021/04/04 00:53:50;;;;;;;19.38;9.88;;;2.30;91.40;;;;;;4992508;28;20109;-72
2021/04/04 00:56:18;;;;;;;21.60;10.23;;;2.30;91.40;;;;;;4989366;28;20441;-72
2021/04/04 00:58:45;;;;;;;17.63;9.80;;;2.40;91.70;;;;;;4991740;28;20429;-72
2021/04/04 01:01:11;;;;;;;22.60;10.40;;;2.40;91.40;;;;;;4982519;28;20027;-73
2021/04/04 01:03:37;;;;;;;18.83;9.50;;;2.20;91.60;;;;;;4991351;28;20022;-72
2021/04/04 01:06:06;;;;;;;22.17;9.35;;;2.30;91.30;;;;;;4990924;28;20440;-73
2021/04/04 01:08:35;;;;;;;18.80;9.18;;;2.30;91.30;;;;;;4990988;28;20031;-73
2021/04/04 01:11:02;;;;;;;22.67;9.85;;;2.20;91.30;;;;;;4987721;28;20485;-73
2021/04/04 01:13:40;;;;;;;18.63;9.60;;;2.10;91.80;;;;;;4989090;28;20390;-72
2021/04/04 01:16:21;;;;;;;17.88;9.98;;;2.20;91.40;;;;;;4986912;28;20027;-72
2021/04/04 01:18:58;;;;;;;16.42;9.52;;;2.20;92.00;;;;;;4984499;28;20117;-73
2021/04/04 01:21:35;;;;;;;19.80;9.68;;;2.10;91.80;;;;;;4979993;28;20406;-72
2021/04/04 01:24:27;;;;;;;19.40;9.60;;;2.10;92.10;;;;;;4973261;28;20027;-72
2021/04/04 01:27:14;;;;;;;18.95;8.82;;;2.10;91.80;;;;;;4991513;28;20110;-72
2021/04/04 01:29:41;;;;;;;18.67;8.80;;;2.10;91.40;;;;;;4991161;28;20022;-73
2021/04/04 01:32:07;;;;;;;19.65;9.32;;;2.20;91.30;;;;;;4982091;28;20041;-72
2021/04/04 01:34:34;;;;;;;15.20;8.55;;;2.10;91.60;;;;;;4991185;28;20030;-72
2021/04/04 01:37:06;;;;;;;17.95;8.90;;;2.10;91.60;;;;;;4983609;28;20039;-72
2021/04/04 01:39:39;;;;;;;18.42;8.93;;;2.00;91.70;;;;;;4986841;28;20027;-72
2021/04/04 01:42:07;;;;;;;20.48;9.10;;;2.00;91.80;;;;;;4987211;28;20565;-72
2021/04/04 01:44:34;;;;;;;17.20;8.85;;;1.90;92.30;;;;;;4991246;28;20038;-72
2021/04/04 01:47:01;;;;;;;21.63;8.65;;;1.90;92.40;;;;;;4985617;28;20502;-72
2021/04/04 01:49:28;;;;;;;15.90;8.82;;;1.90;92.30;;;;;;4987471;28;20054;-72
2021/04/04 01:51:54;;;;;;;17.70;8.45;;;1.90;92.10;;;;;;4988426;28;20654;-72
2021/04/04 01:54:20;;;;;;;17.45;8.32;;;1.90;92.40;;;;;;4985721;28;20054;-73
2021/04/04 01:56:47;;;;;;;15.88;8.48;;;1.90;92.70;;;;;;4981002;28;20051;-72
2021/04/04 01:59:14;;;;;;;17.85;8.70;;;1.80;93.20;;;;;;4985969;28;20030;-72
2021/04/04 02:01:44;;;;;;;21.05;9.60;;;1.90;92.80;;;;;;4984700;28;20033;-72
2021/04/04 02:04:10;;;;;;;16.83;8.73;;;1.90;92.90;;;;;;4988803;28;20442;-72
2021/04/04 02:06:41;;;;;;;19.27;8.25;;;1.80;93.30;;;;;;4988110;28;20037;-72
2021/04/04 02:09:09;;;;;;;18.15;8.90;;;1.80;93.20;;;;;;4989263;28;20053;-72
2021/04/04 02:11:37;;;;;;;14.85;8.23;;;1.70;93.40;;;;;;4983382;28;20031;-72
2021/04/04 02:14:14;;;;;;;19.15;8.70;;;1.80;93.60;;;;;;4986649;28;20045;-72
2021/04/04 02:16:45;;;;;;;16.92;9.25;;;1.80;93.20;;;;;;4988481;28;20069;-72
2021/04/04 02:19:13;;;;;;;16.93;8.60;;;1.70;93.50;;;;;;4989697;28;20496;-72
2021/04/04 02:21:43;;;;;;;19.20;8.20;;;1.70;93.20;;;;;;4990103;28;20027;-72
2021/04/04 02:24:11;;;;;;;18.20;8.98;;;1.70;93.70;;;;;;4984881;28;20022;-72
2021/04/04 02:26:36;;;;;;;14.63;7.68;;;1.60;93.70;;;;;;4989891;28;20027;-73
2021/04/04 02:29:05;;;;;;;14.30;7.65;;;1.70;93.80;;;;;;4986173;28;20023;-72
2021/04/04 02:31:35;;;;;;;16.38;7.93;;;1.70;93.90;;;;;;4989469;28;20108;-72
2021/04/04 02:34:05;;;;;;;19.42;7.20;;;1.70;94.60;;;;;;4983877;28;20038;-72
2021/04/04 02:36:32;;;;;;;12.63;6.57;;;1.80;94.10;;;;;;4972425;28;20026;-72
2021/04/04 02:39:14;;;;;;;13.38;6.90;;;1.80;94.20;;;;;;4988646;28;20111;-72
2021/04/04 02:41:41;;;;;;;12.88;7.05;;;1.70;94.30;;;;;;4989543;28;20041;-72
2021/04/04 02:44:08;;;;;;;13.57;6.80;;;1.60;94.90;;;;;;4990214;28;20173;-72
2021/04/04 02:46:34;;;;;;;15.48;7.25;;;1.60;95.70;;;;;;4984617;28;20090;-72
2021/04/04 02:49:04;;;;;;;13.35;6.47;;;1.60;95.20;;;;;;4989968;28;20034;-72
2021/04/04 02:51:41;;;;;;;12.82;6.40;;;1.60;95.60;;;;;;4989733;28;20046;-72
2021/04/04 02:54:08;;;;;;;13.02;5.93;;;1.60;95.50;;;;;;4988714;28;20026;-72
2021/04/04 02:56:37;;;;;;;14.07;6.20;;;1.50;95.60;;;;;;4989680;28;20108;-72
2021/04/04 02:59:03;;;;;;;14.02;6.65;;;1.60;95.80;;;;;;4988713;28;20030;-72
2021/04/04 03:01:32;;;;;;;14.45;6.63;;;1.60;95.60;;;;;;4984565;28;20031;-72
2021/04/04 03:03:58;;;;;;;11.88;6.20;;;1.60;95.90;;;;;;4990042;28;20045;-72
2021/04/04 03:06:24;;;;;;;12.65;6.68;;;1.60;95.80;;;;;;4989185;28;20030;-72
2021/04/04 03:08:53;;;;;;;9.25;5.93;;;1.60;95.90;;;;;;4985364;28;20034;-72
2021/04/04 03:11:19;;;;;;;11.63;5.50;;;1.50;95.90;;;;;;4977000;28;20466;-72
2021/04/04 03:13:51;;;;;;;10.70;6.15;;;1.50;96.20;;;;;;4985675;28;20037;-72
2021/04/04 03:16:18;;;;;;;11.70;5.68;;;1.50;96.40;;;;;;4981159;28;20069;-72
2021/04/04 03:18:45;;;;;;;14.05;6.15;;;1.40;96.60;;;;;;4986474;28;20041;-71
2021/04/04 03:21:12;;;;;;;9.80;5.35;;;1.50;96.40;;;;;;4984960;28;20118;-72
2021/04/04 03:23:39;;;;;;;10.55;5.22;;;1.50;96.30;;;;;;4986539;28;20389;-72
2021/04/04 03:26:06;;;;;;;10.55;5.20;;;1.60;95.80;;;;;;4988287;28;20101;-72
2021/04/04 03:28:32;;;;;;;10.57;5.57;;;1.60;96.00;;;;;;4988660;28;20026;-72
2021/04/04 03:30:59;;;;;;;9.50;5.25;;;1.50;96.20;;;;;;4988829;28;20551;-72
2021/04/04 03:33:25;;;;;;;11.82;5.13;;;1.50;96.30;;;;;;4978722;28;20483;-72
2021/04/04 03:35:52;;;;;;;10.32;5.43;;;1.50;96.60;;;;;;4978338;28;20033;-72
2021/04/04 03:38:20;;;;;;;8.43;5.22;;;1.40;97.10;;;;;;4992126;28;20121;-72
2021/04/04 03:40:47;;;;;;;8.55;4.88;;;1.50;96.70;;;;;;4987265;28;20041;-72
2021/04/04 03:43:27;;;;;;;10.52;5.32;;;1.50;96.30;;;;;;4993049;28;20038;-71
2021/04/04 03:46:00;;;;;;;10.87;5.10;;;1.50;96.50;;;;;;4988248;28;20092;-72
2021/04/04 03:48:43;;;;;;;10.52;4.82;;;1.40;96.80;;;;;;4982908;28;20031;-71
2021/04/04 03:51:10;;;;;;;8.32;4.60;;;1.40;97.00;;;;;;4992120;28;20466;-71
2021/04/04 03:53:39;;;;;;;10.10;5.03;;;1.40;97.10;;;;;;4992984;28;20041;-71
2021/04/04 03:56:08;;;;;;;8.68;4.82;;;1.40;97.00;;;;;;4986789;28;20057;-72
2021/04/04 03:58:35;;;;;;;9.98;5.20;;;1.50;96.90;;;;;;4991528;28;20027;-72
2021/04/04 04:01:02;;;;;;;7.85;5.03;;;1.40;97.00;;;;;;4988625;28;20031;-71
2021/04/04 04:03:29;;;;;;;9.23;4.60;;;1.30;97.20;;;;;;4984475;28;20515;-72
2021/04/04 04:05:56;;;;;;;7.85;4.78;;;1.30;97.40;;;;;;4989558;28;20039;-72
2021/04/04 04:08:23;;;;;;;9.73;5.43;;;1.30;98.00;;;;;;4986085;28;20042;-72
2021/04/04 04:10:49;;;;;;;8.73;4.95;;;1.20;98.10;;;;;;4992984;28;20481;-71
2021/04/04 04:13:15;;;;;;;9.57;5.00;;;1.20;97.80;;;;;;4992664;28;20073;-71
2021/04/04 04:15:41;;;;;;;9.70;4.40;;;1.30;97.90;;;;;;4990915;28;20085;-71
2021/04/04 04:18:08;;;;;;;8.52;4.95;;;1.30;97.70;;;;;;4984442;28;20026;-71
2021/04/04 04:20:35;;;;;;;8.90;4.60;;;1.30;97.80;;;;;;4980279;28;20034;-72
2021/04/04 04:23:05;;;;;;;8.82;4.65;;;1.20;98.00;;;;;;4988518;28;20046;-71
2021/04/04 04:25:32;;;;;;;8.13;4.60;;;1.20;98.10;;;;;;4991611;28;20073;-71
2021/04/04 04:27:58;;;;;;;8.02;3.92;;;1.20;97.80;;;;;;4993228;28;20031;-71
2021/04/04 04:30:25;;;;;;;12.43;5.10;;;1.20;97.90;;;;;;4990115;28;20026;-71
2021/04/04 04:32:59;;;;;;;13.95;5.20;;;1.20;98.00;;;;;;4991830;28;20057;-72
2021/04/04 04:35:26;;;;;;;8.77;4.72;;;1.20;98.50;;;;;;4989059;28;20033;-72
2021/04/04 04:37:53;;;;;;;7.57;4.88;;;1.20;98.40;;;;;;4988634;28;20517;-72
2021/04/04 04:40:19;;;;;;;8.50;4.43;;;1.20;98.40;;;;;;4987625;28;20114;-71
2021/04/04 04:42:48;;;;;;;8.50;4.78;;;1.10;98.30;;;;;;4984425;28;20039;-71
2021/04/04 04:45:21;;;;;;;7.45;4.15;;;1.10;98.30;;;;;;4991216;28;20033;-72
2021/04/04 04:47:47;;;;;;;7.90;4.78;;;1.10;99.80;;;;;;4990388;28;20126;-71
2021/04/04 04:50:13;;;;;;;6.50;4.35;;;1.10;99.20;;;;;;4986599;28;20117;-71
2021/04/04 04:52:39;;;;;;;9.68;4.65;;;1.10;99.00;;;;;;4990422;28;20535;-71
2021/04/04 04:55:07;;;;;;;13.00;5.45;;;1.10;98.90;;;;;;4991450;28;20432;-71
2021/04/04 04:57:38;;;;;;;9.60;5.22;;;1.10;99.10;;;;;;4990333;28;20442;-71
2021/04/04 05:00:09;;;;;;;12.30;4.63;;;1.10;99.20;;;;;;4989750;28;20026;-72
2021/04/04 05:02:36;;;;;;;10.15;5.25;;;1.10;98.70;;;;;;4985613;28;20045;-72
2021/04/04 05:05:12;;;;;;;11.20;5.10;;;1.10;99.40;;;;;;4981463;28;20078;-71
2021/04/04 05:07:39;;;;;;;7.70;4.32;;;1.20;99.30;;;;;;4987742;28;20039;-72
2021/04/04 05:10:07;;;;;;;11.35;5.03;;;1.20;99.00;;;;;;4991986;28;20061;-71
2021/04/04 05:12:35;;;;;;;10.50;4.90;;;1.30;99.20;;;;;;4991385;28;20388;-71
2021/04/04 05:15:03;;;;;;;8.15;5.05;;;1.30;99.00;;;;;;4992054;28;20073;-72
2021/04/04 05:17:35;;;;;;;13.35;5.50;;;1.30;99.10;;;;;;4989011;28;20037;-72
2021/04/04 05:20:05;;;;;;;7.70;4.28;;;1.30;99.10;;;;;;4977412;28;20038;-71
2021/04/04 05:22:31;;;;;;;9.15;4.45;;;1.40;99.10;;;;;;4983179;28;20037;-71
2021/04/04 05:24:57;;;;;;;9.18;4.70;;;1.50;98.90;;;;;;4991243;28;20113;-71
2021/04/04 05:27:22;;;;;;;10.88;4.70;;;1.60;98.40;;;;;;4965159;28;20042;-71
2021/04/04 05:29:48;;;;;;;7.28;4.30;;;1.50;98.70;;;;;;4991915;28;20085;-72
2021/04/04 05:32:14;;;;;;;12.07;4.18;;;1.60;98.70;;;;;;4988076;28;20034;-71
2021/04/04 05:34:39;;;;;;;7.70;4.25;;;1.60;99.00;;;;;;4982166;28;20022;-71
2021/04/04 05:37:06;;;;;;;8.35;4.35;;;1.60;99.30;;;;;;4980053;28;20302;-72
2021/04/04 05:39:34;;;;;;;6.90;3.88;;;1.70;99.70;;;;;;4989874;28;20034;-71
2021/04/04 05:42:08;;;;;;;9.05;4.20;;;1.70;99.70;;;;;;4989891;28;20038;-70
2021/04/04 05:45:00;;;;;;;7.28;4.10;;;1.80;99.90;;;;;;4989459;28;20034;-71
2021/04/04 05:47:52;;;;;;;6.95;3.75;;;1.80;99.80;;;;;;4990485;28;20034;-74
2021/04/04 05:50:48;;;;;;;6.65;3.88;;;1.90;99.60;;;;;;4988199;28;20397;-74
2021/04/04 05:53:29;;;;;;;7.30;3.63;;;2.00;99.80;;;;;;4988371;28;20109;-73
2021/04/04 05:56:02;;;;;;;4.85;3.40;;;2.00;99.50;;;;;;4983059;28;20108;-73
2021/04/04 05:58:39;;;;;;;8.73;3.20;;;2.10;99.50;;;;;;4984045;28;20039;-73
2021/04/04 06:01:29;;;;;;;7.20;3.20;;;2.20;99.40;;;;;;4988888;28;20034;-74
2021/04/04 06:04:09;;;;;;;7.20;3.38;;;2.40;98.90;;;;;;4980234;28;20023;-74
2021/04/04 06:07:07;;;;;;;8.35;2.88;;;2.50;98.40;;;;;;4971013;28;20114;-73
2021/04/04 06:09:53;;;;;;;4.30;2.50;;;2.60;97.60;;;;;;4988137;28;20027;-74
2021/04/04 06:12:43;;;;;;;5.43;2.72;;;2.90;95.30;;;;;;4985813;28;20477;-74
2021/04/04 06:15:41;;;;;;;5.80;2.58;;;3.20;93.30;;;;;;4981984;28;20136;-74
2021/04/04 06:18:25;;;;;;;3.90;2.40;;;3.50;91.30;;;;;;4980877;28;20620;-75
2021/04/04 06:21:07;;;;;;;4.60;2.50;;;3.70;90.20;;;;;;4988687;28;20022;-78
2021/04/04 06:23:57;;;;;;;5.65;2.75;;;3.90;89.60;;;;;;4989334;28;20117;-84
2021/04/04 06:26:47;;;;;;;5.03;2.67;;;4.10;88.00;;;;;;4989594;28;20034;-75
2021/04/04 06:29:21;;;;;;;5.18;2.50;;;4.20;87.30;;;;;;4982956;28;20035;-73
2021/04/04 06:32:38;;;;;;;5.13;2.70;;;4.30;85.80;;;;;;4987669;28;20042;-76
2021/04/04 06:35:14;;;;;;;3.03;2.30;;;4.30;85.90;;;;;;4937262;28;20042;-74
2021/04/04 06:38:02;;;;;;;5.68;2.67;;;4.40;84.60;;;;;;4986011;28;20031;-75
2021/04/04 06:40:39;;;;;;;4.72;2.40;;;4.50;84.50;;;;;;4988520;28;20105;-73
2021/04/04 06:43:15;;;;;;;4.88;2.67;;;4.60;84.80;;;;;;4975464;28;20037;-74
2021/04/04 06:45:47;;;;;;;5.13;2.63;;;4.60;84.50;;;;;;4983524;28;20030;-76
2021/04/04 06:48:44;;;;;;;4.60;2.63;;;4.70;84.50;;;;;;4986225;28;20045;-73
2021/04/04 06:51:33;;;;;;;9.15;2.83;;;4.70;84.70;;;;;;4988391;28;20050;-73
2021/04/04 06:54:06;;;;;;;6.20;2.67;;;4.80;84.90;;;;;;4986560;28;20046;-73
2021/04/04 06:57:21;;;;;;;4.88;2.85;;;4.90;85.50;;;;;;4987106;28;20038;-72
2021/04/04 07:00:24;;;;;;;6.35;3.05;;;4.90;85.20;;;;;;4906342;29;20032;-73
2021/04/04 07:03:10;;;;;;;5.22;2.88;;;5.00;84.60;;;;;;4889558;29;20029;-73
2021/04/04 07:05:54;;;;;;;5.65;3.03;;;5.10;84.40;;;;;;4978295;28;20052;-75
2021/04/04 07:08:32;;;;;;;4.07;2.45;;;5.20;84.20;;;;;;4986320;28;20084;-76
2021/04/04 07:11:12;;;;;;;6.15;2.80;;;5.30;83.20;;;;;;4987192;28;20113;-72
2021/04/04 07:14:08;;;;;;;4.03;2.30;;;5.30;83.40;;;;;;4986948;28;20153;-73
2021/04/04 07:17:08;;;;;;;7.35;2.17;;;5.40;83.20;;;;;;4985349;28;20066;-72
2021/04/04 07:20:01;;;;;;;4.93;2.22;;;5.50;82.00;;;;;;4986020;28;20030;-72
2021/04/04 07:23:06;;;;;;;5.78;2.35;;;5.50;81.80;;;;;;4985875;28;20035;-72
2021/04/04 07:25:57;;;;;;;10.10;2.47;;;5.60;80.90;;;;;;4986079;28;20034;-70
2021/04/04 07:28:41;;;;;;;5.43;2.40;;;5.70;80.00;;;;;;4986504;28;20042;-70
2021/04/04 07:31:16;;;;;;;5.70;2.83;;;5.80;80.00;;;;;;4984373;28;20049;-74
2021/04/04 07:33:57;;;;;;;5.28;2.53;;;5.80;79.70;;;;;;4985792;28;20097;-71
2021/04/04 07:36:50;;;;;;;5.30;2.60;;;5.90;79.10;;;;;;4984828;28;20038;-73
2021/04/04 07:39:43;;;;;;;5.32;2.65;;;5.90;77.70;;;;;;4983194;28;20034;-73
2021/04/04 07:42:27;;;;;;;11.55;2.60;;;6.00;76.70;;;;;;4982842;28;20128;-73
2021/04/04 07:45:10;;;;;;;6.68;2.30;;;6.10;76.40;;;;;;4984545;28;20401;-73
2021/04/04 07:47:45;;;;;;;7.05;2.30;;;6.10;76.30;;;;;;4968907;28;20584;-73
2021/04/04 07:50:15;;;;;;;7.95;2.45;;;6.20;75.70;;;;;;4983350;28;20035;-74
2021/04/04 07:52:58;;;;;;;6.63;2.33;;;6.30;75.40;;;;;;4985765;28;20057;-73
2021/04/04 07:55:38;;;;;;;4.68;2.28;;;6.30;75.00;;;;;;4984415;28;20088;-73
2021/04/04 07:58:16;;;;;;;4.93;2.33;;;6.50;75.90;;;;;;4983395;28;20034;-78
2021/04/04 08:00:49;;;;;;;6.80;2.70;;;6.50;76.20;;;;;;4985002;28;20027;-76
2021/04/04 08:03:19;;;;;;;7.78;2.42;;;6.60;77.20;;;;;;4983936;28;20536;-74
2021/04/04 08:05:51;;;;;;;6.15;2.85;;;6.60;78.70;;;;;;4985822;28;20038;-74
2021/04/04 08:08:24;;;;;;;10.88;3.03;;;6.60;79.90;;;;;;4983662;28;20049;-75
2021/04/04 08:10:55;;;;;;;7.63;3.33;;;6.70;79.90;;;;;;4987383;28;20109;-75
2021/04/04 08:13:36;;;;;;;8.50;2.85;;;6.80;80.00;;;;;;4983562;28;20034;-74
2021/04/04 08:16:20;;;;;;;11.02;3.33;;;6.80;80.40;;;;;;4986933;28;20134;-74
2021/04/04 08:18:59;;;;;;;9.65;3.15;;;6.90;80.40;;;;;;4981700;28;20023;-77
2021/04/04 08:21:32;;;;;;;6.43;3.00;;;6.90;80.20;;;;;;4986384;28;20037;-73
2021/04/04 08:24:07;;;;;;;11.30;3.38;;;7.00;81.40;;;;;;4985821;28;20482;-71
2021/04/04 08:26:43;;;;;;;7.72;2.78;;;7.10;81.70;;;;;;4985103;28;20034;-72
2021/04/04 08:29:20;;;;;;;8.00;3.50;;;7.20;81.30;;;;;;4988817;28;20031;-71
2021/04/04 08:31:53;;;;;;;5.28;3.33;;;7.20;81.70;;;;;;4985009;28;20565;-71
2021/04/04 08:34:44;;;;;;;9.82;3.80;;;7.30;82.00;;;;;;4989455;28;20042;-72
2021/04/04 08:37:22;;;;;;;7.75;3.50;;;7.40;81.30;;;;;;4987257;28;20034;-72
2021/04/04 08:40:00;;;;;;;7.93;3.13;;;7.50;80.00;;;;;;4978148;28;20063;-73
2021/04/04 08:42:28;;;;;;;11.25;3.47;;;7.50;81.90;;;;;;4987327;28;20585;-72
2021/04/04 08:45:08;;;;;;;9.65;3.70;;;7.60;81.10;;;;;;4986021;28;20551;-72
2021/04/04 08:47:39;;;;;;;13.90;4.03;;;7.70;81.30;;;;;;4985557;28;20034;-71
2021/04/04 08:50:14;;;;;;;6.60;3.08;;;7.80;81.80;;;;;;4989193;28;20033;-73
2021/04/04 08:52:49;;;;;;;12.25;4.07;;;8.00;81.10;;;;;;4988513;28;20038;-73
2021/04/04 08:55:27;;;;;;;10.48;4.50;;;8.00;80.40;;;;;;4986690;28;20404;-71
2021/04/04 08:57:54;;;;;;;11.43;4.35;;;8.00;81.20;;;;;;4984567;28;20049;-71
2021/04/04 09:00:23;;;;;;;16.33;4.95;;;8.10;82.00;;;;;;4983169;28;20533;-72
2021/04/04 09:03:07;;;;;;;13.57;4.85;;;8.10;82.80;;;;;;4982396;28;20089;-74
2021/04/04 09:05:34;;;;;;;11.40;4.28;;;8.10;81.70;;;;;;4989273;28;20027;-76
2021/04/04 09:08:04;;;;;;;11.35;4.55;;;8.20;82.40;;;;;;4986174;28;20041;-74
2021/04/04 09:10:34;;;;;;;8.70;4.23;;;8.40;81.50;;;;;;4987868;28;20045;-74
2021/04/04 09:13:05;;;;;;;10.15;4.40;;;8.40;82.30;;;;;;4986647;28;20054;-74
2021/04/04 09:15:32;;;;;;;11.70;5.00;;;8.50;81.40;;;;;;4988428;28;20030;-75
2021/04/04 09:17:58;;;;;;;10.25;4.40;;;8.50;83.10;;;;;;4985546;28;20041;-77
2021/04/04 09:20:35;;;;;;;12.32;4.22;;;8.60;83.70;;;;;;4991501;28;20137;-76
2021/04/04 09:23:03;;;;;;;10.10;3.75;;;8.70;82.70;;;;;;4988458;28;20037;-77
2021/04/04 09:25:30;;;;;;;13.20;4.35;;;8.80;80.30;;;;;;4987354;28;20060;-77
2021/04/04 09:27:57;;;;;;;10.07;3.30;;;8.90;80.80;;;;;;4985002;28;20026;-76
2021/04/04 09:30:33;;;;;;;9.98;3.85;;;8.90;77.50;;;;;;4982504;28;20038;-73
2021/04/04 09:33:12;;;;;;;7.32;3.47;;;8.90;78.10;;;;;;4979635;28;20493;-78
2021/04/04 09:35:39;;;;;;;11.15;3.33;;;9.00;76.70;;;;;;4987924;28;20026;-77
2021/04/04 09:38:09;;;;;;;13.15;3.80;;;9.10;76.90;;;;;;4983527;28;20034;-76
2021/04/04 09:40:35;;;;;;;9.20;3.83;;;9.10;76.20;;;;;;4985460;28;20038;-75
2021/04/04 09:43:09;;;;;;;15.00;3.92;;;9.20;75.90;;;;;;4980599;28;20035;-74
2021/04/04 09:45:35;;;;;;;12.00;3.90;;;9.30;75.00;;;;;;4984198;28;20121;-73
2021/04/04 09:48:17;;;;;;;11.48;3.67;;;9.30;75.50;;;;;;4981503;28;20031;-73
2021/04/04 09:50:42;;;;;;;7.88;3.80;;;9.40;75.60;;;;;;4989626;28;20062;-76
2021/04/04 09:53:08;;;;;;;15.88;4.05;;;9.60;76.90;;;;;;4990748;28;20548;-76
2021/04/04 09:55:43;;;;;;;13.88;3.92;;;9.60;75.40;;;;;;4989596;28;20023;-77
2021/04/04 09:58:10;;;;;;;11.70;3.80;;;9.70;74.80;;;;;;4990623;28;20076;-77
2021/04/04 10:00:38;;;;;;;12.23;3.75;;;9.80;78.80;;;;;;4989714;28;20015;-76
2021/04/04 10:03:15;;;;;;;13.73;4.38;;;9.90;74.40;;;;;;4983331;28;20383;-75
2021/04/04 10:05:46;;;;;;;12.90;4.68;;;10.00;75.60;;;;;;4986782;28;20038;-75
2021/04/04 10:08:15;;;;;;;8.02;4.13;;;10.00;74.70;;;;;;4983421;28;20546;-76
2021/04/04 10:10:44;;;;;;;9.55;3.58;;;10.10;74.20;;;;;;4984020;28;20380;-76
2021/04/04 10:13:09;;;;;;;9.18;4.15;;;10.00;73.70;;;;;;4987791;28;20026;-76
2021/04/04 10:15:39;;;;;;;9.00;4.00;;;9.90;74.20;;;;;;4983207;28;20631;-75
2021/04/04 10:18:06;;;;;;;11.73;3.70;;;10.00;73.90;;;;;;4987067;28;20101;-75
2021/04/04 10:20:55;;;;;;;7.80;2.92;;;10.20;74.00;;;;;;4990333;28;20042;-75
2021/04/04 10:23:30;;;;;;;8.90;3.30;;;10.30;71.20;;;;;;4989419;28;20441;-76
2021/04/04 10:26:07;;;;;;;9.00;3.53;;;10.30;70.70;;;;;;4981551;28;20121;-75
2021/04/04 10:28:49;;;;;;;11.95;3.28;;;10.30;71.10;;;;;;4987502;28;20031;-76
2021/04/04 10:31:15;;;;;;;10.18;3.25;;;10.30;71.00;;;;;;4988989;28;20093;-76
2021/04/04 10:33:41;;;;;;;7.85;3.60;;;10.30;72.20;;;;;;4985662;28;20030;-76
2021/04/04 10:36:16;;;;;;;9.60;3.58;;;10.50;70.80;;;;;;4985128;28;20029;-76
2021/04/04 10:38:41;;;;;;;11.65;4.18;;;10.80;68.60;;;;;;4988478;28;20030;-76
2021/04/04 10:41:07;;;;;;;10.80;3.47;;;10.90;67.40;;;;;;4986579;28;20021;-77
2021/04/04 10:43:41;;;;;;;11.68;3.42;;;10.90;67.80;;;;;;4984499;28;20032;-77
2021/04/04 10:46:08;;;;;;;9.27;3.75;;;10.80;67.90;;;;;;4984456;28;20121;-74
2021/04/04 10:48:55;;;;;;;8.57;3.50;;;10.70;69.50;;;;;;4986355;28;20489;-76
2021/04/04 10:51:21;;;;;;;11.52;3.50;;;10.90;69.00;;;;;;4988856;28;20054;-75
2021/04/04 10:53:48;;;;;;;10.80;3.60;;;11.20;69.60;;;;;;4987765;28;20057;-73
2021/04/04 10:56:15;;;;;;;11.55;3.33;;;11.50;66.60;;;;;;4982538;28;20393;-74
2021/04/04 10:58:41;;;;;;;9.52;3.30;;;11.80;67.20;;;;;;4986726;28;20031;-73
2021/04/04 11:01:07;;;;;;;9.45;3.25;;;12.10;64.40;;;;;;4983527;28;20022;-74
2021/04/04 11:03:34;;;;;;;8.82;3.28;;;12.30;64.70;;;;;;4985504;28;20026;-73
2021/04/04 11:06:00;;;;;;;9.43;3.42;;;12.30;64.10;;;;;;4981696;28;20053;-76
2021/04/04 11:08:26;;;;;;;8.48;3.67;;;12.20;63.70;;;;;;4981282;28;20117;-74
2021/04/04 11:10:53;;;;;;;14.40;3.55;;;12.40;64.20;;;;;;4987257;28;20110;-75
2021/04/04 11:13:20;;;;;;;7.30;3.35;;;12.60;61.50;;;;;;4986942;28;20476;-75
2021/04/04 11:16:00;;;;;;;8.90;2.70;;;12.90;63.00;;;;;;4988215;28;20030;-75
2021/04/04 11:18:33;;;;;;;8.48;2.80;;;13.00;59.90;;;;;;4987988;28;20026;-75
2021/04/04 11:21:02;;;;;;;8.18;2.92;;;13.30;59.00;;;;;;4989354;28;20041;-75
2021/04/04 11:23:28;;;;;;;9.00;2.95;;;13.50;58.40;;;;;;4988710;28;20109;-75
2021/04/04 11:25:57;;;;;;;11.68;3.83;;;13.80;58.00;;;;;;4986138;28;20954;-76
2021/04/04 11:28:24;;;;;;;10.18;3.00;;;14.20;57.80;;;;;;4970374;28;20034;-76
2021/04/04 11:30:52;;;;;;;7.63;2.78;;;14.50;56.30;;;;;;4981473;28;20031;-75
2021/04/04 11:33:20;;;;;;;6.78;2.78;;;14.50;56.00;;;;;;4985401;28;20044;-82
2021/04/04 11:36:06;;;;;;;7.13;3.05;;;14.80;56.70;;;;;;4985707;28;20090;-81
2021/04/04 11:38:34;;;;;;;9.40;3.20;;;14.90;54.30;;;;;;4974548;28;20069;-75
2021/04/04 11:41:12;;;;;;;9.48;3.40;;;15.30;53.50;;;;;;4983447;28;20018;-74
2021/04/04 11:43:38;;;;;;;8.18;3.08;;;15.70;55.80;;;;;;4987661;28;20065;-81
2021/04/04 11:46:04;;;;;;;8.23;3.10;;;15.90;53.30;;;;;;4979418;28;20042;-81
2021/04/04 11:48:34;;;;;;;6.03;2.85;;;16.00;51.50;;;;;;4974904;28;20499;-81
2021/04/04 11:51:11;;;;;;;6.57;2.90;;;16.30;52.00;;;;;;4986493;28;20561;-81
2021/04/04 11:53:47;;;;;;;6.75;2.78;;;16.60;49.50;;;;;;4985737;28;20038;-81
2021/04/04 11:56:43;;;;;;;9.18;2.92;;;16.00;49.20;;;;;;4986372;28;20046;-81
2021/04/04 11:59:10;;;;;;;10.45;3.63;;;15.50;50.50;;;;;;4989520;28;20072;-81
2021/04/04 12:01:36;;;;;;;9.15;3.10;;;15.00;52.50;;;;;;4989780;28;20014;-81
2021/04/04 12:04:32;;;;;;;6.32;2.63;;;15.20;53.10;;;;;;4990301;28;20033;-81
2021/04/04 12:07:03;;;;;;;7.55;3.42;;;15.40;51.50;;;;;;4990696;28;20038;-80
2021/04/04 12:09:30;;;;;;;8.43;2.72;;;15.30;51.60;;;;;;4987344;28;20025;-80
2021/04/04 12:11:56;;;;;;;6.95;3.08;;;15.80;52.10;;;;;;4989984;28;20105;-80
2021/04/04 12:14:21;;;;;;;7.15;2.92;;;16.20;50.70;;;;;;4990242;28;20114;-80
2021/04/04 12:16:48;;;;;;;7.90;2.65;;;16.90;49.60;;;;;;4989919;28;20089;-80
2021/04/04 12:19:33;;;;;;;7.68;2.83;;;17.60;47.60;;;;;;4988139;28;20041;-80
2021/04/04 12:21:59;;;;;;;66.85;23.73;;;18.40;46.50;;;;;;4972316;28;20030;-80
2021/04/04 12:24:44;;;;;;;63.58;28.40;;;18.80;44.70;;;;;;4989788;28;20109;-80
2021/04/04 12:27:11;;;;;;;32.50;13.05;;;19.30;45.50;;;;;;4990322;28;20773;-80
2021/04/04 12:29:44;;;;;;;11.77;4.80;;;19.00;44.10;;;;;;4988755;28;20022;-75
2021/04/04 12:32:19;;;;;;;6.85;2.63;;;18.90;44.70;;;;;;4988887;28;20109;-77
2021/04/04 12:34:45;;;;;;;12.77;5.30;;;19.50;43.40;;;;;;4987842;28;20018;-73
2021/04/04 12:37:15;;;;;;;5.03;2.80;;;19.80;42.90;;;;;;4985417;28;20146;-76
2021/04/04 12:39:42;;;;;;;10.65;3.13;;;20.00;41.40;;;;;;4987239;28;20743;-81
2021/04/04 12:42:09;;;;;;;9.07;2.80;;;19.00;42.20;;;;;;4967847;28;20034;-76
2021/04/04 12:44:35;;;;;;;9.45;3.17;;;18.50;45.30;;;;;;4987355;28;20041;-76
2021/04/04 12:47:05;;;;;;;7.03;3.08;;;18.30;45.20;;;;;;4988139;28;20034;-78
2021/04/04 12:49:31;;;;;;;9.32;3.55;;;18.20;44.80;;;;;;4987389;28;20040;-75
2021/04/04 12:51:57;;;;;;;7.97;3.25;;;18.80;45.10;;;;;;4986761;28;20046;-77
2021/04/04 12:54:24;;;;;;;13.25;5.25;;;19.60;43.10;;;;;;4987825;28;20022;-79
2021/04/04 12:56:50;;;;;;;10.60;4.82;;;20.00;40.80;;;;;;4988243;28;20394;-77
2021/04/04 12:59:16;;;;;;;9.10;4.97;;;20.10;40.50;;;;;;4987573;28;20102;-75
2021/04/04 13:01:46;;;;;;;7.63;3.00;;;20.10;40.10;;;;;;4987445;28;20113;-76
2021/04/04 13:04:18;;;;;;;8.10;3.55;;;20.30;39.20;;;;;;4988448;28;20073;-78
2021/04/04 13:06:45;;;;;;;290.02;191.65;;;19.90;40.30;;;;;;4985313;28;20113;-83
2021/04/04 13:09:14;;;;;;;10.63;4.35;;;20.10;40.40;;;;;;4985724;28;20030;-78
2021/04/04 13:11:41;;;;;;;18.90;10.45;;;20.10;39.80;;;;;;4987540;28;20014;-85
2021/04/04 13:14:07;;;;;;;9.27;3.42;;;19.80;39.80;;;;;;4984144;28;20035;-76